This is the latest recevied weather packets stored in our database for station/object K7FLA. If no packets are shown the sender has not sent any weather packets the latest 10 day(s).
| Time | Temp. | Humidity | Pressure | Rain* | Wind** | Luminosity | Snow |
|---|---|---|---|---|---|---|---|
| 1777386097 | 11.11° C | 70% | 1097.8 hPa | 0 mm | - | 75 W/m² | - |
| 1777385793 | 11.11° C | 71% | 1097.8 hPa | 0 mm | - | 63 W/m² | - |
| 1777385490 | 10° C | 75% | 1097.8 hPa | 0 mm | - | 89 W/m² | - |
| 1777385187 | 8.89° C | 78% | 1097.8 hPa | 0 mm | - | 81 W/m² | - |
| 1777384882 | 8.33° C | 78% | 1097.9 hPa | 0 mm | - | 71 W/m² | - |
| 1777384581 | 7.78° C | 78% | 1097.7 hPa | 0 mm | - | 45 W/m² | - |
| 1777384281 | 7.78° C | 79% | 1097.7 hPa | 0 mm | - | 36 W/m² | - |
| 1777383976 | 7.22° C | 81% | 1097.7 hPa | 0 mm | - | 46 W/m² | - |
| 1777383672 | 6.67° C | 82% | 1097.6 hPa | 0 mm | - | 45 W/m² | - |
| 1777383369 | 6.11° C | 82% | 1097.6 hPa | 0 mm | - | 32 W/m² | - |
| 1777383065 | 6.11° C | 83% | 1097.4 hPa | 0 mm | - | 26 W/m² | - |
| 1777382762 | 6.11° C | 83% | 1097.6 hPa | 0 mm | - | 20 W/m² | - |
| 1777382458 | 6.11° C | 83% | 1097.5 hPa | 0 mm | - | 16 W/m² | - |
| 1777382154 | 5.56° C | 82% | 1097.4 hPa | 0 mm | - | 11 W/m² | - |
| 1777381851 | 5.56° C | 82% | 1097.5 hPa | 0 mm | - | 7 W/m² | - |
| 1777381549 | 5.56° C | 82% | 1097.3 hPa | 0 mm | - | 4 W/m² | - |
| 1777381245 | 5.56° C | 82% | 1097.3 hPa | 0 mm | - | 2 W/m² | - |
| 1777380944 | 5.56° C | 82% | 1096.9 hPa | 0 mm | - | 1 W/m² | - |
| 1777380640 | 5.56° C | 82% | 1097 hPa | 0 mm | - | 0 W/m² | - |
| 1777380336 | 6.11° C | 82% | 1096.8 hPa | 0 mm | - | 0 W/m² | - |
| 1777380032 | 6.11° C | 83% | 1096.7 hPa | 0 mm | - | 0 W/m² | - |
| 1777379728 | 6.11° C | 83% | 1097 hPa | 0 mm | - | 0 W/m² | - |
| 1777379424 | 5.56° C | 84% | 1096.8 hPa | 0 mm | - | 0 W/m² | - |
| 1777379119 | 6.11° C | 83% | 1096.7 hPa | 0 mm | - | 0 W/m² | - |
| 1777378814 | 5.56° C | 84% | 1096.6 hPa | 0 mm | - | 0 W/m² | - |
* Rain latest hour (hover to see other rain measurements)
** Current wind speed in m/s (hover to see current wind gust speed)